Mingo Junction, Ohio
Current Conditions -  °F | °C
As of 5:53 AM on Thursday 18 Dec 2014 (Local Time) from KHLG Reporting Station
Overcast Overcast  
Wind Chill: 17°   Ceiling: 2100
Heat Index: 27°   Visibility: 10mi
Dew Point: 18°   Wind: 12mph
Humidity: 69%   Direction: 260°W
Pressure: 30.19"   Gusts: NA
Location:  40.32°N, 80.61°W
Report Text: KHLG 181053Z AUTO 26010KT 10SM OVC021 M03/M08 A3019 RMK AO2 SLP240 T10281078
Loading
Personal Weather Stations






























Interactive Weather Map New forecast layout! Learn more

10-Day Weather Forecast

Advertisements
Track Severe Weather on mobile